createdAt,value
2022-09-25T00:01:48.610Z,1.80
2022-09-25T00:04:14.941Z,2.10
2022-09-25T00:06:41.947Z,1.70
2022-09-25T00:09:10.109Z,1.90
2022-09-25T00:11:38.510Z,1.73
2022-09-25T00:14:04.906Z,1.83
2022-09-25T00:16:32.765Z,2.03
2022-09-25T00:19:18.217Z,2.07
2022-09-25T00:21:44.993Z,1.97
2022-09-25T00:24:12.453Z,1.87
2022-09-25T00:26:41.982Z,2.03
2022-09-25T00:29:10.586Z,2.00
2022-09-25T00:31:36.923Z,1.60
2022-09-25T00:34:05.485Z,1.73
2022-09-25T00:36:32.735Z,2.00
2022-09-25T00:38:59.564Z,1.80
2022-09-25T00:41:27.765Z,1.80
2022-09-25T00:43:56.165Z,1.90
2022-09-25T00:46:27.525Z,1.87
2022-09-25T00:49:11.595Z,1.80
2022-09-25T00:51:57.941Z,1.70
2022-09-25T00:54:33.005Z,2.00
2022-09-25T00:57:04.613Z,1.83
2022-09-25T00:59:35.510Z,1.80
2022-09-25T01:02:02.026Z,1.80
2022-09-25T01:04:31.141Z,1.77
2022-09-25T01:06:58.318Z,1.70
2022-09-25T01:09:24.609Z,1.80
2022-09-25T01:11:51.131Z,1.67
2022-09-25T01:14:17.620Z,1.80
2022-09-25T01:17:07.489Z,1.87
2022-09-25T01:19:57.593Z,2.00
2022-09-25T01:22:28.986Z,1.60
2022-09-25T01:25:08.414Z,1.70
2022-09-25T01:27:53.352Z,1.90
2022-09-25T01:30:20.322Z,1.80
2022-09-25T01:32:55.535Z,1.57
2022-09-25T01:35:56.431Z,1.80
2022-09-25T01:38:35.744Z,1.53
2022-09-25T01:41:16.209Z,1.70
2022-09-25T01:43:46.583Z,1.47
2022-09-25T01:46:24.091Z,1.73
2022-09-25T01:48:58.896Z,1.83
2022-09-25T01:51:28.951Z,1.90
2022-09-25T01:53:58.159Z,1.80
2022-09-25T01:56:32.505Z,1.90
2022-09-25T01:59:05.078Z,1.53
2022-09-25T02:01:35.849Z,1.80
2022-09-25T02:04:08.682Z,1.60
2022-09-25T02:06:35.896Z,1.70
2022-09-25T02:09:07.255Z,1.70
2022-09-25T02:11:41.404Z,1.53
2022-09-25T02:14:15.699Z,1.50
2022-09-25T02:16:43.829Z,1.50
2022-09-25T02:19:34.040Z,1.67
2022-09-25T02:22:23.280Z,1.83
2022-09-25T02:24:58.970Z,1.67
2022-09-25T02:27:27.484Z,1.87
2022-09-25T02:29:55.027Z,1.50
2022-09-25T02:32:31.763Z,1.70
2022-09-25T02:34:59.706Z,1.50
2022-09-25T02:37:26.325Z,1.70
2022-09-25T02:39:56.061Z,1.70
2022-09-25T02:42:42.862Z,1.63
2022-09-25T02:45:37.859Z,1.53
2022-09-25T02:48:25.571Z,1.60
2022-09-25T02:50:57.749Z,1.60
2022-09-25T02:53:31.308Z,1.70
2022-09-25T02:56:03.835Z,1.70
2022-09-25T02:58:35.370Z,1.60
2022-09-25T03:01:04.222Z,1.80
2022-09-25T03:03:31.851Z,1.80
2022-09-25T03:05:58.644Z,1.67
2022-09-25T03:08:38.673Z,1.70
2022-09-25T03:11:06.829Z,1.73
2022-09-25T03:13:34.005Z,1.73
2022-09-25T03:16:14.599Z,1.70
2022-09-25T03:18:41.228Z,1.80
2022-09-25T03:21:07.601Z,1.83
2022-09-25T03:23:33.959Z,1.60
2022-09-25T03:26:00.434Z,1.57
2022-09-25T03:28:27.101Z,1.90
2022-09-25T03:31:08.473Z,1.50
2022-09-25T03:33:40.332Z,1.50
2022-09-25T03:36:34.014Z,1.80
2022-09-25T03:39:00.512Z,1.60
2022-09-25T03:41:29.090Z,1.50
2022-09-25T03:43:56.554Z,1.80
2022-09-25T03:46:25.910Z,1.50
2022-09-25T03:48:53.291Z,1.60
2022-09-25T03:51:20.444Z,1.60
2022-09-25T03:53:47.870Z,1.70
2022-09-25T03:56:23.319Z,1.70
2022-09-25T03:58:51.075Z,1.53
2022-09-25T04:01:19.309Z,1.50
2022-09-25T04:03:47.242Z,1.60
2022-09-25T04:06:18.149Z,1.60
2022-09-25T04:08:45.263Z,1.63
2022-09-25T04:11:11.576Z,1.60
2022-09-25T04:13:37.960Z,1.47
2022-09-25T04:16:06.421Z,1.80
2022-09-25T04:18:33.145Z,1.50
2022-09-25T04:21:03.990Z,1.60
2022-09-25T04:23:30.510Z,1.40
2022-09-25T04:25:56.982Z,1.73
2022-09-25T04:28:23.623Z,1.57
2022-09-25T04:30:50.343Z,1.67
2022-09-25T04:33:36.274Z,1.50
2022-09-25T04:36:03.263Z,1.57
2022-09-25T04:38:32.461Z,1.80
2022-09-25T04:41:01.875Z,1.40
2022-09-25T04:43:29.417Z,1.57
2022-09-25T04:45:55.757Z,1.30
2022-09-25T04:48:22.073Z,1.50
2022-09-25T04:50:49.321Z,1.70
2022-09-25T04:53:16.259Z,1.60
2022-09-25T04:55:42.596Z,1.60
2022-09-25T04:58:09.910Z,1.60
2022-09-25T05:00:37.304Z,1.60
2022-09-25T05:03:05.121Z,1.50
2022-09-25T05:05:31.941Z,1.50
2022-09-25T05:07:59.812Z,1.60
2022-09-25T05:10:28.707Z,1.47
2022-09-25T05:12:56.449Z,1.70
2022-09-25T05:15:22.890Z,1.57
2022-09-25T05:17:49.387Z,1.40
2022-09-25T05:20:16.129Z,1.60
2022-09-25T05:22:42.469Z,1.30
2022-09-25T05:25:09.560Z,1.50
2022-09-25T05:27:35.852Z,1.60
2022-09-25T05:30:02.353Z,1.53
2022-09-25T05:32:28.672Z,1.73
2022-09-25T05:34:54.960Z,1.50
2022-09-25T05:37:21.747Z,1.40
2022-09-25T05:39:48.047Z,1.30
2022-09-25T05:42:15.907Z,1.63
2022-09-25T05:44:42.200Z,1.70
2022-09-25T05:47:08.514Z,1.33
2022-09-25T05:49:34.859Z,1.60
2022-09-25T05:52:01.343Z,1.53
2022-09-25T05:54:27.635Z,1.47
2022-09-25T05:56:54.504Z,1.57
2022-09-25T05:59:20.783Z,1.43
2022-09-25T06:01:47.143Z,1.40
2022-09-25T06:04:13.550Z,1.40
2022-09-25T06:06:39.867Z,1.37
2022-09-25T06:09:06.267Z,1.60
2022-09-25T06:11:32.572Z,1.40
2022-09-25T06:13:59.002Z,1.33
2022-09-25T06:16:25.508Z,1.43
2022-09-25T06:18:52.483Z,1.53
2022-09-25T06:21:18.783Z,1.40
2022-09-25T06:23:45.199Z,1.40
2022-09-25T06:26:12.451Z,1.60
2022-09-25T06:28:38.756Z,1.20
2022-09-25T06:31:05.311Z,1.60
2022-09-25T06:33:32.104Z,1.33
2022-09-25T06:35:58.808Z,1.40
2022-09-25T06:38:25.773Z,1.30
2022-09-25T06:40:52.674Z,1.40
2022-09-25T06:43:19.061Z,1.60
2022-09-25T06:45:47.765Z,1.50
2022-09-25T06:48:16.166Z,1.43
2022-09-25T06:50:44.358Z,1.40
2022-09-25T06:53:11.206Z,1.40
2022-09-25T06:55:37.666Z,1.40
2022-09-25T06:58:06.097Z,1.17
2022-09-25T07:00:33.078Z,1.50
2022-09-25T07:03:17.995Z,1.30
2022-09-25T07:05:45.387Z,1.30
2022-09-25T07:08:13.866Z,1.13
2022-09-25T07:10:45.100Z,1.40
2022-09-25T07:13:12.123Z,1.30
2022-09-25T07:15:38.910Z,1.40
2022-09-25T07:18:05.323Z,1.23
2022-09-25T07:20:32.235Z,1.47
2022-09-25T07:23:04.057Z,1.40
2022-09-25T07:25:31.836Z,1.40
2022-09-25T07:27:58.978Z,1.33
2022-09-25T07:30:29.474Z,1.40
2022-09-25T07:32:59.949Z,1.30
2022-09-25T07:35:27.119Z,1.50
2022-09-25T07:37:56.753Z,1.30
2022-09-25T07:40:23.392Z,1.60
2022-09-25T07:42:49.751Z,1.30
2022-09-25T07:45:16.128Z,1.37
2022-09-25T07:47:42.435Z,1.40
2022-09-25T07:50:12.038Z,1.27
2022-09-25T07:52:41.631Z,1.20
2022-09-25T07:55:08.344Z,1.27
2022-09-25T07:57:34.689Z,1.30
2022-09-25T08:00:01.060Z,1.30
2022-09-25T08:02:27.468Z,1.50
2022-09-25T08:04:54.454Z,2.10
2022-09-25T08:07:20.806Z,1.33
2022-09-25T08:09:47.110Z,1.30
2022-09-25T08:12:13.570Z,2.17
2022-09-25T08:14:39.855Z,1.20
2022-09-25T08:17:06.220Z,1.20
2022-09-25T08:19:33.079Z,2.27
2022-09-25T08:21:59.375Z,1.73
2022-09-25T08:24:25.729Z,1.40
2022-09-25T08:26:52.043Z,1.60
2022-09-25T08:29:18.388Z,1.37
2022-09-25T08:31:44.734Z,1.60
2022-09-25T08:34:36.257Z,1.77
2022-09-25T08:36:58.140Z,1.57
2022-09-25T08:39:24.478Z,1.30
2022-09-25T08:41:53.231Z,1.70
2022-09-25T08:44:30.786Z,1.40
2022-09-25T08:47:19.957Z,1.83
2022-09-25T08:49:57.399Z,1.53
2022-09-25T08:52:23.896Z,1.63
2022-09-25T08:54:51.466Z,1.90
2022-09-25T08:57:34.951Z,2.00
2022-09-25T09:00:11.622Z,1.80
2022-09-25T09:02:45.405Z,1.90
2022-09-25T09:05:24.350Z,1.83
2022-09-25T09:07:56.539Z,2.20
2022-09-25T09:10:34.473Z,2.30
2022-09-25T09:13:11.206Z,2.28
2022-09-25T09:15:41.377Z,2.57
2022-09-25T09:18:22.403Z,2.50
2022-09-25T09:20:52.422Z,2.45
2022-09-25T09:23:21.616Z,2.25
2022-09-25T09:26:21.036Z,2.30
2022-09-25T09:29:11.828Z,2.17
2022-09-25T09:32:12.356Z,2.40
2022-09-25T09:37:50.393Z,2.20
2022-09-25T09:40:36.721Z,2.28
2022-09-25T09:43:20.315Z,2.23
2022-09-25T09:45:52.971Z,2.20
2022-09-25T09:48:41.290Z,2.40
2022-09-25T09:51:12.702Z,2.20
2022-09-25T09:53:41.148Z,2.20
2022-09-25T09:56:17.442Z,2.27
2022-09-25T09:59:11.259Z,2.50
2022-09-25T10:01:42.221Z,2.30
2022-09-25T10:04:11.949Z,2.27
2022-09-25T10:06:43.219Z,2.23
2022-09-25T10:09:13.248Z,2.27
2022-09-25T10:11:40.268Z,2.40
2022-09-25T10:14:11.890Z,2.13
2022-09-25T10:16:38.291Z,2.40
2022-09-25T10:19:20.639Z,2.30
2022-09-25T10:21:54.086Z,2.20
2022-09-25T10:24:45.451Z,2.00
2022-09-25T10:27:30.056Z,2.20
2022-09-25T10:30:11.631Z,2.30
2022-09-25T10:33:00.886Z,3.22
2022-09-25T10:35:43.359Z,2.83
2022-09-25T10:38:29.388Z,2.60
2022-09-25T10:41:13.676Z,2.72
2022-09-25T10:43:53.845Z,3.20
2022-09-25T10:46:50.433Z,3.40
2022-09-25T10:49:40.429Z,3.25
2022-09-25T10:52:11.462Z,3.23
2022-09-25T10:54:44.544Z,3.73
2022-09-25T10:57:34.134Z,3.50
2022-09-25T11:00:06.239Z,3.90
2022-09-25T11:02:38.390Z,3.35
2022-09-25T11:05:06.347Z,3.70
2022-09-25T11:07:33.145Z,3.90
2022-09-25T11:10:00.527Z,3.77
2022-09-25T11:12:29.700Z,3.67
2022-09-25T11:15:01.427Z,3.80
2022-09-25T11:17:38.680Z,4.32
2022-09-25T11:20:13.895Z,4.13
2022-09-25T11:22:40.871Z,3.78
2022-09-25T11:25:20.751Z,3.90
2022-09-25T11:27:58.039Z,3.40
2022-09-25T11:30:25.169Z,3.83
2022-09-25T11:33:00.240Z,3.60
2022-09-25T11:35:57.017Z,3.60
2022-09-25T11:39:07.169Z,3.17
2022-09-25T11:41:45.203Z,3.70
2022-09-25T11:44:35.431Z,3.70
2022-09-25T11:47:21.131Z,3.20
2022-09-25T11:49:51.352Z,3.90
2022-09-25T11:52:45.652Z,3.55
2022-09-25T11:55:21.869Z,3.97
2022-09-25T11:58:20.625Z,3.70
2022-09-25T12:00:59.898Z,3.65
2022-09-25T12:03:47.614Z,3.70
2022-09-25T12:06:22.106Z,3.50
2022-09-25T12:09:15.879Z,3.40
2022-09-25T12:11:57.747Z,4.05
2022-09-25T12:14:37.696Z,3.40
2022-09-25T12:17:20.102Z,3.80
2022-09-25T12:20:07.091Z,3.67
2022-09-25T12:22:48.597Z,3.95
2022-09-25T12:25:52.695Z,3.90
2022-09-25T12:28:30.216Z,3.70
2022-09-25T12:31:27.745Z,3.72
2022-09-25T12:34:26.611Z,3.65
2022-09-25T12:36:59.007Z,3.60
2022-09-25T12:39:48.552Z,3.28
2022-09-25T12:42:38.536Z,3.30
2022-09-25T12:45:25.559Z,3.47
2022-09-25T12:48:07.692Z,3.67
2022-09-25T12:50:38.797Z,3.65
2022-09-25T12:53:22.544Z,3.60
2022-09-25T12:55:54.662Z,3.50
2022-09-25T12:58:25.847Z,3.65
2022-09-25T13:00:57.982Z,3.73
2022-09-25T13:03:31.450Z,3.73
2022-09-25T13:06:16.508Z,3.47
2022-09-25T13:08:51.598Z,3.33
2022-09-25T13:11:34.111Z,3.37
2022-09-25T13:14:02.363Z,3.25
2022-09-25T13:16:28.857Z,3.43
2022-09-25T13:19:12.559Z,3.30
2022-09-25T13:21:42.168Z,3.40
2022-09-25T13:24:13.231Z,3.47
2022-09-25T13:26:45.633Z,3.47
2022-09-25T13:29:26.029Z,3.00
2022-09-25T13:32:02.480Z,3.35
2022-09-25T13:34:34.491Z,3.42
2022-09-25T13:37:04.348Z,3.17
2022-09-25T13:39:55.934Z,3.30
2022-09-25T13:42:38.451Z,3.20
2022-09-25T13:45:24.811Z,3.15
2022-09-25T13:48:26.021Z,3.13
2022-09-25T13:51:18.268Z,3.40
2022-09-25T13:54:04.821Z,3.10
2022-09-25T13:56:34.058Z,3.10
2022-09-25T13:59:02.503Z,3.20
2022-09-25T14:01:37.555Z,3.00
2022-09-25T14:04:14.836Z,3.20
2022-09-25T14:06:42.300Z,3.20
2022-09-25T14:09:18.507Z,2.97
2022-09-25T14:12:00.079Z,3.10
2022-09-25T14:14:30.370Z,3.13
2022-09-25T14:16:58.374Z,3.20
2022-09-25T14:19:29.252Z,3.17
2022-09-25T14:21:56.578Z,3.07
2022-09-25T14:24:30.492Z,2.77
2022-09-25T14:27:01.356Z,2.97
2022-09-25T14:29:32.733Z,2.90
2022-09-25T14:32:54.610Z,2.70
2022-09-25T14:35:35.977Z,3.27
2022-09-25T14:38:26.095Z,2.83
2022-09-25T14:41:11.078Z,2.78
2022-09-25T14:44:19.350Z,2.80
2022-09-25T14:46:48.346Z,2.88
2022-09-25T14:49:39.220Z,2.88
2022-09-25T14:52:11.810Z,2.58
2022-09-25T14:54:42.051Z,2.92
2022-09-25T14:57:09.722Z,2.72
2022-09-25T14:59:42.505Z,3.25
2022-09-25T15:02:33.651Z,2.88
2022-09-25T15:05:17.022Z,2.70
2022-09-25T15:07:44.439Z,3.03
2022-09-25T15:10:38.420Z,3.00
2022-09-25T15:13:05.708Z,3.00
2022-09-25T15:15:31.998Z,2.63
2022-09-25T15:17:59.672Z,2.93
2022-09-25T15:20:32.563Z,2.85
2022-09-25T15:23:04.340Z,2.70
2022-09-25T15:25:45.788Z,2.95
2022-09-25T15:28:16.467Z,2.65
2022-09-25T15:30:43.394Z,2.67
2022-09-25T15:33:21.736Z,2.40
2022-09-25T15:35:59.150Z,2.85
2022-09-25T15:38:36.784Z,3.03
2022-09-25T15:41:07.310Z,2.70
2022-09-25T15:43:34.151Z,2.70
2022-09-25T15:46:37.076Z,2.80
2022-09-25T15:49:04.475Z,2.40
2022-09-25T15:51:33.418Z,2.63
2022-09-25T15:54:02.107Z,2.67
2022-09-25T15:56:38.723Z,2.50
2022-09-25T15:59:16.998Z,2.75
2022-09-25T16:02:02.171Z,2.60
2022-09-25T16:04:49.085Z,2.80
2022-09-25T16:07:36.175Z,2.43
2022-09-25T16:10:10.331Z,2.38
2022-09-25T16:12:47.422Z,2.60
2022-09-25T16:15:29.982Z,2.58
2022-09-25T16:18:21.641Z,3.10
2022-09-25T16:20:56.267Z,2.50
2022-09-25T16:23:29.758Z,2.40
2022-09-25T16:25:58.338Z,2.23
2022-09-25T16:28:28.786Z,2.57
2022-09-25T16:31:01.948Z,2.70
2022-09-25T16:33:49.754Z,2.50
2022-09-25T16:36:17.959Z,2.27
2022-09-25T16:39:09.524Z,2.50
2022-09-25T16:41:36.974Z,2.60
2022-09-25T16:44:14.663Z,2.40
2022-09-25T16:46:47.468Z,2.53
2022-09-25T16:49:13.945Z,2.40
2022-09-25T16:51:45.645Z,2.00
2022-09-25T16:54:14.196Z,2.60
2022-09-25T16:56:42.851Z,2.30
2022-09-25T16:59:21.984Z,2.80
2022-09-25T17:01:53.395Z,2.13
2022-09-25T17:04:23.771Z,2.30
2022-09-25T17:06:50.309Z,2.20
2022-09-25T17:09:18.099Z,2.30
2022-09-25T17:11:45.974Z,2.35
2022-09-25T17:14:25.404Z,2.17
2022-09-25T17:16:52.978Z,2.60
2022-09-25T17:19:19.416Z,2.60
2022-09-25T17:21:49.733Z,2.40
2022-09-25T17:24:17.570Z,2.20
2022-09-25T17:26:44.455Z,2.30
2022-09-25T17:29:11.082Z,2.17
2022-09-25T17:31:37.837Z,2.30
2022-09-25T17:34:30.731Z,2.10
2022-09-25T17:36:57.798Z,2.20
2022-09-25T17:39:24.091Z,2.10
2022-09-25T17:41:50.598Z,2.00
2022-09-25T17:44:19.088Z,2.30
2022-09-25T17:46:45.515Z,2.30
2022-09-25T17:49:11.955Z,2.17
2022-09-25T17:51:38.948Z,2.20
2022-09-25T17:54:06.425Z,1.97
2022-09-25T17:56:34.663Z,2.20
2022-09-25T17:59:02.077Z,2.43
2022-09-25T18:01:36.785Z,2.10
2022-09-25T18:04:25.440Z,2.10
2022-09-25T18:06:51.966Z,2.13
2022-09-25T18:09:18.574Z,2.27
2022-09-25T18:11:44.938Z,1.90
2022-09-25T18:14:13.207Z,2.10
2022-09-25T18:16:41.654Z,2.00
2022-09-25T18:19:33.410Z,1.80
2022-09-25T18:22:18.703Z,1.90
2022-09-25T18:24:46.547Z,1.90
2022-09-25T18:27:13.886Z,1.93
2022-09-25T18:29:40.334Z,1.93
2022-09-25T18:32:07.946Z,2.03
2022-09-25T18:34:34.237Z,2.00
2022-09-25T18:37:00.618Z,2.00
2022-09-25T18:39:26.959Z,2.00
2022-09-25T18:41:53.243Z,1.97
2022-09-25T18:44:23.203Z,2.20
2022-09-25T18:46:50.962Z,2.23
2022-09-25T18:49:18.652Z,2.10
2022-09-25T18:51:45.003Z,2.20
2022-09-25T18:54:14.718Z,2.00
2022-09-25T18:56:41.584Z,2.27
2022-09-25T18:59:07.950Z,2.27
2022-09-25T19:01:35.606Z,2.10
2022-09-25T19:04:02.054Z,2.17
2022-09-25T19:06:28.395Z,2.17
2022-09-25T19:08:56.000Z,2.07
2022-09-25T19:11:23.836Z,1.80
2022-09-25T19:13:50.538Z,2.00
2022-09-25T19:16:17.852Z,2.17
2022-09-25T19:18:45.083Z,1.90
2022-09-25T19:21:15.525Z,1.90
2022-09-25T19:23:42.774Z,1.90
2022-09-25T19:26:13.386Z,2.20
2022-09-25T19:28:40.993Z,2.13
2022-09-25T19:31:12.266Z,1.73
2022-09-25T19:33:39.122Z,1.80
2022-09-25T19:36:08.887Z,2.10
2022-09-25T19:38:36.922Z,1.90
2022-09-25T19:41:04.699Z,1.83
2022-09-25T19:43:34.471Z,2.00
2022-09-25T19:46:00.780Z,2.00
2022-09-25T19:48:27.172Z,2.00
2022-09-25T19:50:53.459Z,2.10
2022-09-25T19:53:19.779Z,2.00
2022-09-25T19:55:53.941Z,1.90
2022-09-25T19:58:23.661Z,2.00
2022-09-25T20:00:50.609Z,2.17
2022-09-25T20:03:17.496Z,2.00
2022-09-25T20:05:44.618Z,2.00
2022-09-25T20:08:11.040Z,2.13
2022-09-25T20:10:38.020Z,1.70
2022-09-25T20:13:04.998Z,2.17
2022-09-25T20:15:32.215Z,2.10
2022-09-25T20:17:58.658Z,1.80
2022-09-25T20:20:27.475Z,1.60
2022-09-25T20:22:56.009Z,2.00
2022-09-25T20:25:22.543Z,2.07
2022-09-25T20:27:50.095Z,2.00
2022-09-25T20:30:16.993Z,2.27
2022-09-25T20:32:43.495Z,1.90
2022-09-25T20:35:09.799Z,1.83
2022-09-25T20:37:36.186Z,2.10
2022-09-25T20:40:02.842Z,1.57
2022-09-25T20:42:29.180Z,1.80
2022-09-25T20:44:55.509Z,1.90
2022-09-25T20:47:22.360Z,1.83
2022-09-25T20:49:49.260Z,2.03
2022-09-25T20:52:15.537Z,1.73
2022-09-25T20:54:42.277Z,2.10
2022-09-25T20:57:09.230Z,2.10
2022-09-25T20:59:36.190Z,1.80
2022-09-25T21:02:03.150Z,1.90
2022-09-25T21:04:29.575Z,1.90
2022-09-25T21:06:55.902Z,1.87
2022-09-25T21:09:25.315Z,2.10
2022-09-25T21:11:52.761Z,2.10
2022-09-25T21:14:24.452Z,2.00
2022-09-25T21:16:51.705Z,1.90
2022-09-25T21:19:20.768Z,2.10
2022-09-25T21:21:47.782Z,2.07
2022-09-25T21:24:16.190Z,1.93
2022-09-25T21:26:43.047Z,1.83
2022-09-25T21:29:10.875Z,2.00
2022-09-25T21:31:39.224Z,1.90
2022-09-25T21:34:09.321Z,1.80
2022-09-25T21:36:35.875Z,1.70
2022-09-25T21:39:03.016Z,2.00
2022-09-25T21:41:30.555Z,2.10
2022-09-25T21:44:05.600Z,1.90
2022-09-25T21:46:33.095Z,2.07
2022-09-25T21:49:01.776Z,1.80
2022-09-25T21:51:31.442Z,1.53
2022-09-25T21:53:58.075Z,1.80
2022-09-25T21:56:25.843Z,1.60
2022-09-25T21:58:53.505Z,1.80
2022-09-25T22:01:21.898Z,2.20
2022-09-25T22:03:50.048Z,1.97
2022-09-25T22:06:20.033Z,1.60
2022-09-25T22:08:50.319Z,1.70
2022-09-25T22:11:17.433Z,2.00
2022-09-25T22:13:44.999Z,1.77
2022-09-25T22:16:15.564Z,1.80
2022-09-25T22:18:51.007Z,1.70
2022-09-25T22:21:20.595Z,1.70
2022-09-25T22:23:47.078Z,1.70
2022-09-25T22:26:14.271Z,1.90
2022-09-25T22:28:41.322Z,1.70
2022-09-25T22:31:10.692Z,1.67
2022-09-25T22:33:37.230Z,1.80
2022-09-25T22:36:05.489Z,1.70
2022-09-25T22:38:32.535Z,1.50
2022-09-25T22:41:03.630Z,1.73
2022-09-25T22:43:29.939Z,1.57
2022-09-25T22:45:56.301Z,1.77
2022-09-25T22:48:22.638Z,1.73
2022-09-25T22:50:56.382Z,1.77
2022-09-25T22:53:23.606Z,1.60
2022-09-25T22:55:50.187Z,1.80
2022-09-25T22:58:18.036Z,1.90
2022-09-25T23:00:47.143Z,1.73
2022-09-25T23:03:13.494Z,1.67
2022-09-25T23:05:40.260Z,1.77
2022-09-25T23:08:07.503Z,2.00
2022-09-25T23:11:02.626Z,2.07
2022-09-25T23:13:21.938Z,1.70
2022-09-25T23:15:48.532Z,1.80
2022-09-25T23:18:14.934Z,1.70
2022-09-25T23:20:41.283Z,2.00
2022-09-25T23:23:07.603Z,1.73
2022-09-25T23:25:34.128Z,1.70
2022-09-25T23:28:01.558Z,1.90
2022-09-25T23:30:27.996Z,1.80
2022-09-25T23:32:54.334Z,1.60
2022-09-25T23:35:20.659Z,1.70
2022-09-25T23:37:46.991Z,1.83
2022-09-25T23:40:15.691Z,1.60
2022-09-25T23:42:43.205Z,1.60
2022-09-25T23:45:11.095Z,1.70
2022-09-25T23:47:37.744Z,1.63
2022-09-25T23:50:04.906Z,1.60
2022-09-25T23:52:31.505Z,1.80
2022-09-25T23:54:59.245Z,1.90
2022-09-25T23:57:25.547Z,1.63
2022-09-25T23:59:51.839Z,1.67
